createdAt,value
2023-03-16T00:00:27.966Z,99491.44
2023-03-16T00:02:55.895Z,99488.75
2023-03-16T00:05:26.049Z,99494.06
2023-03-16T00:07:54.609Z,99503.72
2023-03-16T00:10:27.912Z,99498.78
2023-03-16T00:12:58.501Z,99509.09
2023-03-16T00:15:28.042Z,99511.94
2023-03-16T00:17:57.613Z,99506.63
2023-03-16T00:20:25.642Z,99517.69
2023-03-16T00:22:56.981Z,99523.00
2023-03-16T00:25:24.964Z,99525.81
2023-03-16T00:27:52.740Z,99525.72
2023-03-16T00:30:23.107Z,99523.16
2023-03-16T00:32:54.138Z,99526.31
2023-03-16T00:35:21.908Z,99524.03
2023-03-16T00:37:49.902Z,99528.13
2023-03-16T00:40:19.701Z,99525.06
2023-03-16T00:42:49.310Z,99523.06
2023-03-16T00:45:18.969Z,99523.03
2023-03-16T00:47:46.684Z,99526.75
2023-03-16T00:50:14.435Z,99533.09
2023-03-16T00:52:42.898Z,99528.69
2023-03-16T00:55:13.216Z,99529.63
2023-03-16T00:57:41.659Z,99529.59
2023-03-16T01:00:13.219Z,99533.59
2023-03-16T01:02:45.524Z,99533.03
2023-03-16T01:05:15.270Z,99529.31
2023-03-16T01:07:45.297Z,99536.88
2023-03-16T01:10:17.600Z,99538.31
2023-03-16T01:12:45.471Z,99543.28
2023-03-16T01:15:16.755Z,99539.81
2023-03-16T01:17:44.456Z,99538.91
2023-03-16T01:20:12.953Z,99544.25
2023-03-16T01:22:40.738Z,99546.84
2023-03-16T01:25:11.372Z,99547.56
2023-03-16T01:27:39.158Z,99544.75
2023-03-16T01:30:08.065Z,99542.09
2023-03-16T01:32:35.793Z,99545.09
2023-03-16T01:35:08.338Z,99553.53
2023-03-16T01:37:36.885Z,99543.66
2023-03-16T01:40:08.923Z,99548.31
2023-03-16T01:42:48.963Z,99544.66
2023-03-16T01:46:05.215Z,99552.72
2023-03-16T01:49:15.155Z,99546.25
2023-03-16T01:52:03.748Z,99549.16
2023-03-16T01:54:38.461Z,99558.56
2023-03-16T01:57:22.354Z,99554.44
2023-03-16T02:00:15.125Z,99556.09
2023-03-16T02:02:48.655Z,99557.63
2023-03-16T02:05:42.499Z,99557.94
2023-03-16T02:08:12.634Z,99558.78
2023-03-16T02:10:41.701Z,99555.91
2023-03-16T02:13:09.659Z,99567.22
2023-03-16T02:15:39.280Z,99563.75
2023-03-16T02:18:08.673Z,99562.66
2023-03-16T02:21:06.687Z,99561.22
2023-03-16T02:23:34.455Z,99569.16
2023-03-16T02:26:23.153Z,99567.47
2023-03-16T02:29:29.917Z,99574.50
2023-03-16T02:32:00.200Z,99575.44
2023-03-16T02:34:28.652Z,99576.19
2023-03-16T02:36:59.475Z,99581.47
2023-03-16T02:39:28.173Z,99584.06
2023-03-16T02:41:55.987Z,99580.75
2023-03-16T02:44:35.724Z,99598.50
2023-03-16T02:47:29.808Z,99594.06
2023-03-16T02:49:59.309Z,99595.97
2023-03-16T02:52:27.938Z,99601.19
2023-03-16T02:54:56.476Z,99604.88
2023-03-16T02:57:25.064Z,99609.13
2023-03-16T02:59:52.899Z,99611.75
2023-03-16T03:02:22.499Z,99619.69
2023-03-16T03:04:54.669Z,99615.38
2023-03-16T03:07:32.376Z,99618.00
2023-03-16T03:10:04.611Z,99618.78
2023-03-16T03:12:36.038Z,99622.25
2023-03-16T03:15:08.824Z,99624.88
2023-03-16T03:17:37.582Z,99631.25
2023-03-16T03:20:13.808Z,99636.56
2023-03-16T03:22:42.178Z,99639.09
2023-03-16T03:25:10.076Z,99639.81
2023-03-16T03:27:38.202Z,99642.78
2023-03-16T03:30:06.998Z,99652.03
2023-03-16T03:32:34.813Z,99648.72
2023-03-16T03:35:05.695Z,99659.09
2023-03-16T03:37:33.814Z,99658.09
2023-03-16T03:40:04.806Z,99661.31
2023-03-16T03:42:32.540Z,99661.59
2023-03-16T03:45:00.946Z,99668.56
2023-03-16T03:47:28.689Z,99674.16
2023-03-16T03:49:56.434Z,99674.84
2023-03-16T03:52:25.009Z,99679.25
2023-03-16T03:54:52.694Z,99677.00
2023-03-16T03:57:21.935Z,99680.19
2023-03-16T03:59:50.041Z,99686.66
2023-03-16T04:02:17.800Z,99690.97
2023-03-16T04:04:46.382Z,99688.81
2023-03-16T04:07:15.060Z,99694.47
2023-03-16T04:09:43.595Z,99707.69
2023-03-16T04:12:12.430Z,99702.41
2023-03-16T04:14:40.191Z,99698.91
2023-03-16T04:17:08.074Z,99698.19
2023-03-16T04:19:36.020Z,99705.13
2023-03-16T04:22:06.692Z,99708.13
2023-03-16T04:24:36.417Z,99702.03
2023-03-16T04:27:04.296Z,99710.22
2023-03-16T04:29:32.236Z,99714.88
2023-03-16T04:32:00.029Z,99716.84
2023-03-16T04:34:28.745Z,99719.41
2023-03-16T04:36:57.438Z,99717.13
2023-03-16T04:39:25.951Z,99720.22
2023-03-16T04:41:54.454Z,99732.50
2023-03-16T04:44:22.146Z,99729.72
2023-03-16T04:46:50.665Z,99735.81
2023-03-16T04:49:18.387Z,99735.03
2023-03-16T04:51:46.065Z,99745.44
2023-03-16T04:54:13.884Z,99744.34
2023-03-16T04:56:41.854Z,99741.75
2023-03-16T04:59:11.011Z,99746.19
2023-03-16T05:01:39.608Z,99749.56
2023-03-16T05:04:08.255Z,99750.22
2023-03-16T05:06:36.821Z,99755.53
2023-03-16T05:09:07.652Z,99749.34
2023-03-16T05:11:37.580Z,99754.06
2023-03-16T05:14:06.246Z,99752.28
2023-03-16T05:16:34.678Z,99758.16
2023-03-16T05:19:03.363Z,99765.91
2023-03-16T05:21:32.293Z,99764.56
2023-03-16T05:24:00.940Z,99761.41
2023-03-16T05:26:29.599Z,99768.72
2023-03-16T05:28:58.430Z,99772.69
2023-03-16T05:31:27.502Z,99769.16
2023-03-16T05:33:55.537Z,99781.00
2023-03-16T05:36:24.836Z,99783.59
2023-03-16T05:38:53.435Z,99779.06
2023-03-16T05:41:21.687Z,99774.59
2023-03-16T05:43:50.450Z,99784.63
2023-03-16T05:46:20.864Z,99772.66
2023-03-16T05:48:49.544Z,99789.81
2023-03-16T05:51:17.251Z,99780.88
2023-03-16T05:53:46.998Z,99784.81
2023-03-16T05:56:15.217Z,99781.84
2023-03-16T05:58:43.017Z,99792.53
2023-03-16T06:01:13.533Z,99793.84
2023-03-16T06:03:42.137Z,99798.06
2023-03-16T06:06:11.230Z,99803.16
2023-03-16T06:08:39.056Z,99816.50
2023-03-16T06:11:08.791Z,99817.56
2023-03-16T06:13:39.938Z,99820.47
2023-03-16T06:16:09.070Z,99837.56
2023-03-16T06:18:38.214Z,99835.47
2023-03-16T06:21:07.217Z,99844.69
2023-03-16T06:23:36.065Z,99840.56
2023-03-16T06:26:05.383Z,99847.84
2023-03-16T06:28:33.128Z,99854.59
2023-03-16T06:31:01.094Z,99859.22
2023-03-16T06:33:29.749Z,99863.47
2023-03-16T06:35:59.325Z,99857.22
2023-03-16T06:38:29.364Z,99873.25
2023-03-16T06:40:57.990Z,99872.59
2023-03-16T06:43:26.672Z,99880.69
2023-03-16T06:45:55.337Z,99883.09
2023-03-16T06:48:24.890Z,99880.53
2023-03-16T06:50:52.651Z,99881.22
2023-03-16T06:53:22.241Z,99890.28
2023-03-16T06:55:51.457Z,99894.38
2023-03-16T06:58:20.099Z,99906.34
2023-03-16T07:00:48.098Z,99905.53
2023-03-16T07:03:17.617Z,99905.53
2023-03-16T07:05:46.856Z,99904.59
2023-03-16T07:08:15.386Z,99912.88
2023-03-16T07:10:43.906Z,99919.88
2023-03-16T07:13:15.185Z,99922.88
2023-03-16T07:15:44.795Z,99926.00
2023-03-16T07:18:12.479Z,99928.00
2023-03-16T07:20:40.276Z,99924.31
2023-03-16T07:23:07.987Z,99914.47
2023-03-16T07:25:36.702Z,99913.97
2023-03-16T07:28:04.797Z,99909.03
2023-03-16T07:30:34.380Z,99918.31
2023-03-16T07:33:02.157Z,99925.38
2023-03-16T07:35:30.610Z,99939.41
2023-03-16T07:37:58.741Z,99938.38
2023-03-16T07:40:27.785Z,99933.53
2023-03-16T07:42:55.873Z,99930.69
2023-03-16T07:45:24.407Z,99921.94
2023-03-16T07:47:52.935Z,99926.84
2023-03-16T07:50:23.367Z,99929.66
2023-03-16T07:52:52.182Z,99930.78
2023-03-16T07:55:20.049Z,99941.72
2023-03-16T07:57:49.612Z,99940.00
2023-03-16T08:00:23.995Z,99939.66
2023-03-16T08:02:55.053Z,99947.19
2023-03-16T08:05:25.557Z,99945.59
2023-03-16T08:07:56.229Z,99943.03
2023-03-16T08:10:26.069Z,99944.97
2023-03-16T08:12:54.938Z,99945.50
2023-03-16T08:15:22.777Z,99941.56
2023-03-16T08:17:52.608Z,99948.72
2023-03-16T08:20:21.287Z,99960.72
2023-03-16T08:22:49.915Z,99961.16
2023-03-16T08:25:20.078Z,99967.38
2023-03-16T08:27:48.842Z,99961.00
2023-03-16T08:30:18.034Z,99965.03
2023-03-16T08:32:46.673Z,99967.22
2023-03-16T08:35:19.290Z,99971.78
2023-03-16T08:37:47.596Z,99964.75
2023-03-16T08:40:17.145Z,99967.88
2023-03-16T08:42:46.066Z,99963.03
2023-03-16T08:45:15.012Z,99971.88
2023-03-16T08:47:44.319Z,99962.47
2023-03-16T08:50:13.771Z,99977.59
2023-03-16T08:52:42.964Z,99976.06
2023-03-16T08:55:11.606Z,99974.31
2023-03-16T08:57:40.084Z,99981.03
2023-03-16T09:00:13.849Z,99974.31
2023-03-16T09:02:44.263Z,99981.59
2023-03-16T09:05:16.027Z,99981.56
2023-03-16T09:07:43.924Z,99982.16
2023-03-16T09:10:16.364Z,99982.91
2023-03-16T09:12:44.950Z,99977.34
2023-03-16T09:15:15.009Z,99980.34
2023-03-16T09:17:45.267Z,99983.13
2023-03-16T09:20:26.826Z,99996.13
2023-03-16T09:22:59.026Z,99988.63
2023-03-16T09:25:29.692Z,99992.81
2023-03-16T09:28:01.162Z,99994.09
2023-03-16T09:30:29.166Z,100001.31
2023-03-16T09:32:57.274Z,100006.72
2023-03-16T09:35:25.345Z,100004.22
2023-03-16T09:38:05.527Z,100005.66
2023-03-16T09:40:36.163Z,100009.94
2023-03-16T09:43:38.805Z,100012.31
2023-03-16T09:46:38.833Z,100008.13
2023-03-16T09:49:12.378Z,100001.81
2023-03-16T09:52:34.168Z,100013.41
2023-03-16T09:55:28.598Z,100015.19
2023-03-16T09:57:59.924Z,100014.84
2023-03-16T10:00:41.886Z,100015.16
2023-03-16T10:03:28.709Z,100016.78
2023-03-16T10:06:08.166Z,100022.31
2023-03-16T10:09:34.168Z,100016.03
2023-03-16T10:12:09.007Z,100016.19
2023-03-16T10:15:04.920Z,100022.28
2023-03-16T10:18:07.313Z,100019.94
2023-03-16T10:20:36.756Z,100016.50
2023-03-16T10:23:24.321Z,100020.22
2023-03-16T10:25:56.880Z,100017.19
2023-03-16T10:28:28.852Z,100010.81
2023-03-16T10:31:02.367Z,100031.38
2023-03-16T10:33:36.805Z,100028.13
2023-03-16T10:36:17.175Z,100024.63
2023-03-16T10:38:55.414Z,100038.41
2023-03-16T10:41:37.561Z,100025.47
2023-03-16T10:44:28.703Z,100024.94
2023-03-16T10:47:07.507Z,100035.44
2023-03-16T10:49:48.973Z,100022.25
2023-03-16T10:52:42.827Z,100017.84
2023-03-16T10:55:31.236Z,100021.38
2023-03-16T10:57:59.826Z,100026.78
2023-03-16T11:00:43.524Z,100016.34
2023-03-16T11:03:39.501Z,100011.50
2023-03-16T11:06:22.641Z,100018.63
2023-03-16T11:08:52.893Z,100013.44
2023-03-16T11:11:34.367Z,100019.22
2023-03-16T11:14:12.939Z,100011.81
2023-03-16T11:17:28.696Z,100016.41
2023-03-16T11:20:12.362Z,100017.53
2023-03-16T11:22:48.600Z,100017.16
2023-03-16T11:25:47.909Z,100016.50
2023-03-16T11:28:38.829Z,100011.22
2023-03-16T11:31:50.750Z,100014.06
2023-03-16T11:34:30.734Z,100012.94
2023-03-16T11:37:43.270Z,100008.03
2023-03-16T11:41:04.801Z,100005.66
2023-03-16T11:43:53.780Z,99997.53
2023-03-16T11:46:32.246Z,100010.34
2023-03-16T11:50:23.013Z,99998.41
2023-03-16T11:53:20.139Z,100002.97
2023-03-16T11:56:45.038Z,100006.69
2023-03-16T12:00:15.070Z,100001.69
2023-03-16T12:02:58.597Z,100006.81
2023-03-16T12:05:48.747Z,100005.91
2023-03-16T12:08:57.680Z,100009.69
2023-03-16T12:11:36.893Z,100003.41
2023-03-16T12:14:30.459Z,99997.97
2023-03-16T12:17:29.609Z,100001.56
2023-03-16T12:20:34.203Z,100005.91
2023-03-16T12:23:22.707Z,99991.44
2023-03-16T12:25:53.157Z,100000.47
2023-03-16T12:28:27.860Z,99997.44
2023-03-16T12:31:31.047Z,99994.91
2023-03-16T12:34:27.675Z,99994.91
2023-03-16T12:37:37.410Z,99987.91
2023-03-16T12:40:23.060Z,99993.44
2023-03-16T12:43:24.489Z,100001.75
2023-03-16T12:46:33.934Z,99985.84
2023-03-16T12:49:06.312Z,99995.88
2023-03-16T12:51:42.548Z,99993.94
2023-03-16T12:54:27.721Z,99994.97
2023-03-16T12:57:09.799Z,99996.53
2023-03-16T12:59:45.727Z,99990.50
2023-03-16T13:02:33.319Z,99990.94
2023-03-16T13:05:13.257Z,99996.06
2023-03-16T13:08:05.782Z,99999.31
2023-03-16T13:10:33.615Z,99997.38
2023-03-16T13:13:16.476Z,99996.75
2023-03-16T13:15:49.801Z,99998.75
2023-03-16T13:18:19.009Z,99995.00
2023-03-16T13:21:00.028Z,99998.75
2023-03-16T13:23:59.853Z,100000.66
2023-03-16T13:26:52.270Z,99996.31
2023-03-16T13:29:32.754Z,99990.97
2023-03-16T13:32:08.860Z,99993.25
2023-03-16T13:34:50.023Z,99996.56
2023-03-16T13:37:21.324Z,99998.03
2023-03-16T13:40:02.179Z,99992.75
2023-03-16T13:42:33.823Z,99996.22
2023-03-16T13:45:15.468Z,99995.34
2023-03-16T13:47:46.137Z,99992.59
2023-03-16T13:50:17.860Z,100000.72
2023-03-16T13:52:58.949Z,100003.78
2023-03-16T13:55:34.815Z,99998.47
2023-03-16T13:58:04.861Z,100005.38
2023-03-16T14:00:37.195Z,100006.78
2023-03-16T14:03:20.145Z,99996.50
2023-03-16T14:05:49.760Z,100003.13
2023-03-16T14:08:26.369Z,99997.59
2023-03-16T14:10:59.232Z,99996.78
2023-03-16T14:13:32.483Z,99995.00
2023-03-16T14:16:10.252Z,99994.72
2023-03-16T14:18:46.132Z,99997.03
2023-03-16T14:21:25.504Z,99996.72
2023-03-16T14:24:07.866Z,99995.16
2023-03-16T14:26:47.474Z,100004.00
2023-03-16T14:29:31.678Z,100007.41
2023-03-16T14:32:00.741Z,100006.50
2023-03-16T14:34:39.758Z,99996.72
2023-03-16T14:37:19.094Z,100004.56
2023-03-16T14:40:06.167Z,100006.59
2023-03-16T14:42:35.005Z,100007.66
2023-03-16T14:45:10.837Z,100003.84
2023-03-16T14:47:48.165Z,100010.47
2023-03-16T14:50:26.031Z,100012.75
2023-03-16T14:52:57.402Z,100006.44
2023-03-16T14:55:27.145Z,100016.81
2023-03-16T14:57:56.758Z,100019.28
2023-03-16T15:00:25.577Z,100021.91
2023-03-16T15:03:08.256Z,100017.63
2023-03-16T15:05:43.343Z,100023.06
2023-03-16T15:08:32.955Z,100018.16
2023-03-16T15:11:07.243Z,100021.44
2023-03-16T15:13:41.659Z,100019.25
2023-03-16T15:16:14.480Z,100020.13
2023-03-16T15:18:43.496Z,100023.78
2023-03-16T15:21:25.892Z,100030.00
2023-03-16T15:23:54.735Z,100027.44
2023-03-16T15:26:27.566Z,100031.09
2023-03-16T15:28:57.611Z,100031.94
2023-03-16T15:31:26.861Z,100027.91
2023-03-16T15:33:54.681Z,100032.25
2023-03-16T15:36:25.044Z,100032.78
2023-03-16T15:38:55.694Z,100040.56
2023-03-16T15:41:30.079Z,100033.56
2023-03-16T15:44:01.628Z,100035.28
2023-03-16T15:46:29.384Z,100044.31
2023-03-16T15:48:57.072Z,100047.66
2023-03-16T15:51:31.412Z,100045.13
2023-03-16T15:54:08.508Z,100042.69
2023-03-16T15:56:53.192Z,100044.50
2023-03-16T15:59:23.962Z,100056.84
2023-03-16T16:01:53.026Z,100053.13
2023-03-16T16:04:25.122Z,100065.13
2023-03-16T16:06:55.535Z,100063.69
2023-03-16T16:09:24.387Z,100062.22
2023-03-16T16:11:53.919Z,100062.53
2023-03-16T16:14:26.628Z,100067.75
2023-03-16T16:16:56.576Z,100074.94
2023-03-16T16:19:25.630Z,100078.50
2023-03-16T16:21:56.158Z,100078.09
2023-03-16T16:24:25.332Z,100089.22
2023-03-16T16:26:55.544Z,100089.63
2023-03-16T16:29:32.072Z,100090.72
2023-03-16T16:32:02.080Z,100088.69
2023-03-16T16:34:31.711Z,100091.28
2023-03-16T16:37:01.285Z,100100.09
2023-03-16T16:39:29.915Z,100103.69
2023-03-16T16:41:58.119Z,100104.22
2023-03-16T16:44:34.397Z,100110.13
2023-03-16T16:47:03.693Z,100102.41
2023-03-16T16:49:35.216Z,100118.75
2023-03-16T16:52:04.284Z,100119.94
2023-03-16T16:54:33.080Z,100123.75
2023-03-16T16:57:03.181Z,100125.59
2023-03-16T16:59:38.324Z,100133.22
2023-03-16T17:02:57.846Z,100135.94
2023-03-16T17:05:30.241Z,100140.94
2023-03-16T17:08:04.206Z,100135.84
2023-03-16T17:10:35.068Z,100139.38
2023-03-16T17:13:05.466Z,100135.66
2023-03-16T17:15:34.964Z,100145.81
2023-03-16T17:18:13.311Z,100149.34
2023-03-16T17:20:42.852Z,100165.03
2023-03-16T17:23:35.073Z,100159.28
2023-03-16T17:26:18.928Z,100159.41
2023-03-16T17:28:57.692Z,100165.03
2023-03-16T17:31:38.402Z,100175.00
2023-03-16T17:34:27.646Z,100174.50
2023-03-16T17:36:57.232Z,100182.50
2023-03-16T17:39:34.692Z,100189.94
2023-03-16T17:42:18.592Z,100184.66
2023-03-16T17:44:53.143Z,100181.53
2023-03-16T17:47:29.279Z,100193.13
2023-03-16T17:49:58.728Z,100182.78
2023-03-16T17:52:29.905Z,100192.84
2023-03-16T17:54:58.592Z,100200.91
2023-03-16T17:57:34.466Z,100199.56
2023-03-16T18:00:42.446Z,100201.59
2023-03-16T18:03:17.440Z,100203.22
2023-03-16T18:05:46.756Z,100207.00
2023-03-16T18:08:27.313Z,100204.22
2023-03-16T18:11:03.642Z,100220.63
2023-03-16T18:13:38.406Z,100218.72
2023-03-16T18:16:08.512Z,100215.75
2023-03-16T18:18:42.920Z,100219.84
2023-03-16T18:21:24.815Z,100218.72
2023-03-16T18:23:56.345Z,100228.66
2023-03-16T18:26:27.701Z,100227.16
2023-03-16T18:28:58.085Z,100219.13
2023-03-16T18:31:28.962Z,100222.66
2023-03-16T18:34:06.057Z,100235.31
2023-03-16T18:36:38.695Z,100230.31
2023-03-16T18:39:20.657Z,100234.41
2023-03-16T18:41:51.130Z,100249.19
2023-03-16T18:44:26.035Z,100241.13
2023-03-16T18:47:03.039Z,100257.28
2023-03-16T18:49:37.604Z,100257.19
2023-03-16T18:52:24.833Z,100257.38
2023-03-16T18:54:53.786Z,100259.06
2023-03-16T18:57:26.829Z,100267.91
2023-03-16T18:59:56.574Z,100268.09
2023-03-16T19:02:59.310Z,100267.69
2023-03-16T19:05:38.908Z,100270.44
2023-03-16T19:08:10.305Z,100272.00
2023-03-16T19:10:50.430Z,100274.34
2023-03-16T19:13:22.770Z,100273.03
2023-03-16T19:15:55.599Z,100284.38
2023-03-16T19:18:26.355Z,100280.56
2023-03-16T19:20:58.673Z,100288.38
2023-03-16T19:23:33.682Z,100284.16
2023-03-16T19:26:01.697Z,100288.38
2023-03-16T19:28:39.162Z,100296.41
2023-03-16T19:31:29.642Z,100298.66
2023-03-16T19:33:58.871Z,100300.63
2023-03-16T19:36:33.654Z,100307.72
2023-03-16T19:39:04.142Z,100311.13
2023-03-16T19:41:38.203Z,100308.72
2023-03-16T19:44:28.301Z,100310.47
2023-03-16T19:47:00.226Z,100314.09
2023-03-16T19:49:30.827Z,100325.25
2023-03-16T19:52:00.423Z,100322.94
2023-03-16T19:54:33.540Z,100328.41
2023-03-16T19:57:16.162Z,100324.06
2023-03-16T19:59:56.153Z,100331.03
2023-03-16T20:02:30.391Z,100332.75
2023-03-16T20:04:59.989Z,100341.72
2023-03-16T20:07:29.796Z,100337.81
2023-03-16T20:09:59.792Z,100339.06
2023-03-16T20:12:31.151Z,100340.63
2023-03-16T20:15:00.954Z,100346.38
2023-03-16T20:17:33.054Z,100347.00
2023-03-16T20:20:02.786Z,100342.91
2023-03-16T20:22:32.425Z,100342.63
2023-03-16T20:25:05.358Z,100342.34
2023-03-16T20:27:36.668Z,100352.34
2023-03-16T20:30:17.626Z,100346.47
2023-03-16T20:32:48.140Z,100349.50
2023-03-16T20:35:23.462Z,100353.84
2023-03-16T20:37:53.332Z,100354.19
2023-03-16T20:40:24.073Z,100358.03
2023-03-16T20:42:54.167Z,100359.53
2023-03-16T20:45:29.352Z,100360.31
2023-03-16T20:47:59.194Z,100357.53
2023-03-16T20:50:31.159Z,100361.38
2023-03-16T20:53:00.891Z,100357.16
2023-03-16T20:55:32.011Z,100361.78
2023-03-16T20:58:02.887Z,100363.03
2023-03-16T21:00:36.610Z,100364.09
2023-03-16T21:03:23.376Z,100361.41
2023-03-16T21:05:55.864Z,100363.13
2023-03-16T21:08:26.418Z,100362.38
2023-03-16T21:10:57.275Z,100364.03
2023-03-16T21:13:34.359Z,100363.00
2023-03-16T21:16:05.143Z,100367.72
2023-03-16T21:18:34.816Z,100370.28
2023-03-16T21:21:05.047Z,100374.78
2023-03-16T21:23:34.700Z,100371.44
2023-03-16T21:26:04.582Z,100375.56
2023-03-16T21:28:35.884Z,100372.00
2023-03-16T21:31:06.844Z,100378.22
2023-03-16T21:33:43.279Z,100370.31
2023-03-16T21:36:21.021Z,100375.56
2023-03-16T21:38:52.959Z,100377.38
2023-03-16T21:41:23.427Z,100384.41
2023-03-16T21:43:54.630Z,100377.63
2023-03-16T21:46:25.673Z,100388.88
2023-03-16T21:48:56.637Z,100391.38
2023-03-16T21:51:32.900Z,100385.59
2023-03-16T21:54:02.473Z,100391.81
2023-03-16T21:56:32.721Z,100396.97
2023-03-16T21:59:02.431Z,100396.97
2023-03-16T22:01:34.935Z,100397.00
2023-03-16T22:04:14.488Z,100393.53
2023-03-16T22:06:46.150Z,100392.69
2023-03-16T22:09:22.645Z,100396.03
2023-03-16T22:11:52.446Z,100399.16
2023-03-16T22:14:22.075Z,100393.81
2023-03-16T22:16:51.850Z,100383.28
2023-03-16T22:19:21.564Z,100393.06
2023-03-16T22:21:51.707Z,100398.44
2023-03-16T22:24:27.990Z,100389.38
2023-03-16T22:26:59.564Z,100390.50
2023-03-16T22:29:36.738Z,100389.72
2023-03-16T22:32:16.721Z,100395.03
2023-03-16T22:34:53.616Z,100393.91
2023-03-16T22:37:28.028Z,100387.13
2023-03-16T22:39:58.739Z,100392.31
2023-03-16T22:42:38.290Z,100391.56
2023-03-16T22:45:27.967Z,100393.28
2023-03-16T22:48:02.468Z,100395.06
2023-03-16T22:50:35.993Z,100388.97
2023-03-16T22:53:11.607Z,100395.94
2023-03-16T22:55:41.544Z,100395.19
2023-03-16T22:58:31.072Z,100393.41
2023-03-16T23:01:18.417Z,100406.41
2023-03-16T23:03:51.901Z,100409.25
2023-03-16T23:06:27.345Z,100405.59
2023-03-16T23:08:58.394Z,100406.41
2023-03-16T23:11:34.566Z,100406.41
2023-03-16T23:14:10.164Z,100409.16
2023-03-16T23:16:40.340Z,100408.16
2023-03-16T23:19:30.873Z,100420.47
2023-03-16T23:22:06.778Z,100402.94
2023-03-16T23:24:37.082Z,100409.25
2023-03-16T23:27:22.917Z,100424.22
2023-03-16T23:29:53.265Z,100417.03
2023-03-16T23:32:22.812Z,100411.75
2023-03-16T23:34:52.492Z,100413.38
2023-03-16T23:37:22.072Z,100410.84
2023-03-16T23:39:51.593Z,100422.31
2023-03-16T23:42:21.237Z,100418.75
2023-03-16T23:44:50.002Z,100420.69
2023-03-16T23:47:18.711Z,100432.91
2023-03-16T23:49:46.675Z,100430.19
2023-03-16T23:52:15.546Z,100432.94
2023-03-16T23:54:45.087Z,100425.91
2023-03-16T23:57:13.842Z,100432.91
2023-03-16T23:59:43.644Z,100425.97
